Time;durP1;ratioP1;P1;durP2;ratioP2;P2;SDS_P1;SDS_P2;PMS_P1;PMS_P2;Temp;Humidity;BMP_temperature;BMP_pressure;BME280_temperature;BME280_humidity;BME280_pressure;Samples;Min_cycle;Max_cycle;Signal;HPM_P1;HPM_P2
2021/11/22 00:01:40;;;;;;;4.07;1.00;;;5.00;99.90;;;;;;5066179;28;20029;-43
2021/11/22 00:04:05;;;;;;;5.82;1.38;;;5.00;99.90;;;;;;5066470;28;20063;-42
2021/11/22 00:06:31;;;;;;;3.42;1.42;;;5.00;99.90;;;;;;5066937;28;20059;-43
2021/11/22 00:08:56;;;;;;;3.33;1.48;;;5.00;99.90;;;;;;5070533;28;20016;-43
2021/11/22 00:11:22;;;;;;;6.00;1.40;;;5.00;99.90;;;;;;5070220;28;20020;-42
2021/11/22 00:13:47;;;;;;;3.35;1.30;;;5.00;99.90;;;;;;5070159;28;20056;-43
2021/11/22 00:16:13;;;;;;;3.95;1.50;;;5.00;99.90;;;;;;5069544;28;20081;-43
2021/11/22 00:18:39;;;;;;;4.15;1.70;;;5.00;99.90;;;;;;5069722;28;20547;-43
2021/11/22 00:21:04;;;;;;;5.07;1.50;;;5.00;99.90;;;;;;5069540;28;20111;-43
2021/11/22 00:23:30;;;;;;;7.07;1.50;;;5.00;99.90;;;;;;5069994;28;20108;-42
2021/11/22 00:25:56;;;;;;;3.83;1.52;;;5.00;99.90;;;;;;5069931;28;20400;-44
2021/11/22 00:28:21;;;;;;;5.25;1.75;;;5.00;99.90;;;;;;5069525;28;20024;-44
2021/11/22 00:30:47;;;;;;;2.97;1.70;;;5.00;99.90;;;;;;5070095;28;20020;-44
2021/11/22 00:33:12;;;;;;;4.07;1.73;;;5.00;99.90;;;;;;5069081;28;20036;-42
2021/11/22 00:35:38;;;;;;;4.53;1.35;;;5.00;99.90;;;;;;5069988;28;20470;-42
2021/11/22 00:38:07;;;;;;;3.05;1.30;;;5.00;99.90;;;;;;5069732;28;20684;-42
2021/11/22 00:40:34;;;;;;;4.63;1.55;;;5.00;99.90;;;;;;5069050;28;20094;-43
2021/11/22 00:43:01;;;;;;;4.35;1.50;;;5.00;99.90;;;;;;5069631;28;20063;-43
2021/11/22 00:45:27;;;;;;;4.38;1.50;;;5.00;99.90;;;;;;5069454;28;20056;-42
2021/11/22 00:47:54;;;;;;;5.68;1.48;;;5.00;99.90;;;;;;5068439;28;20031;-42
2021/11/22 00:50:20;;;;;;;6.30;1.55;;;4.90;99.90;;;;;;5069896;28;20056;-42
2021/11/22 00:52:45;;;;;;;3.65;1.27;;;4.90;99.90;;;;;;5068833;28;20052;-42
2021/11/22 00:55:11;;;;;;;3.75;1.50;;;4.90;99.90;;;;;;5068545;28;20422;-43
2021/11/22 00:57:37;;;;;;;3.67;1.30;;;4.90;99.90;;;;;;5069284;28;20048;-42
2021/11/22 01:00:06;;;;;;;3.95;1.42;;;4.90;99.90;;;;;;5069081;28;20491;-43
2021/11/22 01:02:32;;;;;;;4.28;1.42;;;4.90;99.90;;;;;;5068622;28;20031;-42
2021/11/22 01:04:57;;;;;;;2.45;1.20;;;4.90;99.90;;;;;;5069409;28;20016;-42
2021/11/22 01:07:23;;;;;;;3.03;1.20;;;4.90;99.90;;;;;;5069226;28;20028;-43
2021/11/22 01:09:48;;;;;;;2.65;1.20;;;4.90;99.90;;;;;;5064999;28;20012;-43
2021/11/22 01:12:14;;;;;;;1.50;1.02;;;4.90;99.90;;;;;;5069751;28;20115;-43
2021/11/22 01:14:40;;;;;;;2.83;1.05;;;4.90;99.90;;;;;;5069089;28;20095;-42
2021/11/22 01:17:05;;;;;;;2.03;1.00;;;5.00;99.90;;;;;;5067587;28;20522;-42
2021/11/22 01:19:32;;;;;;;2.25;1.00;;;5.00;99.90;;;;;;5068599;28;20435;-43
2021/11/22 01:21:58;;;;;;;3.58;1.10;;;4.90;99.90;;;;;;5049595;28;20594;-43
2021/11/22 01:24:23;;;;;;;3.13;1.00;;;5.00;99.90;;;;;;5061811;28;20035;-43
2021/11/22 01:26:49;;;;;;;3.13;0.90;;;5.00;99.90;;;;;;5068789;28;20032;-46
2021/11/22 01:29:14;;;;;;;2.80;1.13;;;5.00;99.90;;;;;;5069006;28;20104;-43
2021/11/22 01:31:40;;;;;;;1.60;1.00;;;5.00;99.90;;;;;;5067937;28;20032;-42
2021/11/22 01:34:08;;;;;;;4.60;1.15;;;5.00;99.90;;;;;;5068598;28;20036;-43
2021/11/22 01:36:34;;;;;;;1.90;1.02;;;5.00;99.90;;;;;;5067752;28;20036;-42
2021/11/22 01:38:59;;;;;;;2.67;1.02;;;5.00;99.90;;;;;;5068518;28;20158;-44
2021/11/22 01:41:25;;;;;;;3.05;1.20;;;5.00;99.90;;;;;;5068350;28;20081;-43
2021/11/22 01:43:51;;;;;;;1.75;0.90;;;5.00;99.90;;;;;;5067781;28;20027;-42
2021/11/22 01:46:18;;;;;;;4.35;1.25;;;5.00;99.90;;;;;;5069100;28;20039;-43
2021/11/22 01:48:44;;;;;;;3.65;1.35;;;5.00;99.90;;;;;;5068218;28;20381;-44
2021/11/22 01:51:10;;;;;;;1.73;0.90;;;5.10;99.90;;;;;;5067724;28;20035;-42
2021/11/22 01:53:36;;;;;;;2.45;1.10;;;5.10;99.90;;;;;;5068570;28;20082;-43
2021/11/22 01:56:01;;;;;;;1.65;1.17;;;5.00;99.90;;;;;;5068168;28;20123;-44
2021/11/22 01:58:27;;;;;;;1.13;0.90;;;5.00;99.90;;;;;;5068031;28;20111;-42
2021/11/22 02:00:54;;;;;;;2.70;2.10;;;5.10;99.90;;;;;;5068101;28;20691;-42
2021/11/22 02:03:23;;;;;;;4.28;1.98;;;5.00;99.90;;;;;;5048926;28;20044;-43
2021/11/22 02:05:52;;;;;;;2.92;1.35;;;5.10;99.90;;;;;;5061582;28;20577;-42
2021/11/22 02:08:22;;;;;;;4.70;1.40;;;5.10;99.90;;;;;;5068827;28;20027;-42
2021/11/22 02:10:48;;;;;;;4.82;1.20;;;5.10;99.90;;;;;;5068260;28;20028;-43
2021/11/22 02:13:15;;;;;;;3.78;1.45;;;5.10;99.90;;;;;;5067255;28;20052;-42
2021/11/22 02:15:47;;;;;;;6.93;1.30;;;5.10;99.90;;;;;;5067590;28;20064;-41
2021/11/22 02:18:13;;;;;;;4.03;1.60;;;5.10;99.90;;;;;;5067820;28;20048;-43
2021/11/22 02:20:38;;;;;;;6.57;1.95;;;5.10;99.90;;;;;;5066987;28;20503;-42
2021/11/22 02:23:07;;;;;;;1.45;1.10;;;5.10;99.90;;;;;;5067911;28;20423;-43
2021/11/22 02:25:34;;;;;;;4.70;1.55;;;5.10;99.90;;;;;;5067290;28;20090;-43
2021/11/22 02:28:00;;;;;;;3.60;1.50;;;5.10;99.90;;;;;;5066970;28;20020;-43
2021/11/22 02:30:29;;;;;;;2.92;1.50;;;5.10;99.90;;;;;;5066984;28;20472;-43
2021/11/22 02:33:02;;;;;;;3.28;1.60;;;5.00;99.90;;;;;;5067040;28;20020;-43
2021/11/22 02:35:29;;;;;;;2.97;1.30;;;5.10;99.90;;;;;;5067818;28;20074;-43
2021/11/22 02:37:55;;;;;;;2.72;1.40;;;5.00;99.90;;;;;;5067207;28;20033;-43
2021/11/22 02:40:20;;;;;;;4.55;1.42;;;5.00;99.90;;;;;;5066935;28;20024;-42
2021/11/22 02:42:49;;;;;;;3.42;1.33;;;5.00;99.90;;;;;;5067423;28;20031;-42
2021/11/22 02:45:20;;;;;;;3.00;1.48;;;5.00;99.90;;;;;;5067933;28;20024;-43
2021/11/22 02:47:47;;;;;;;3.60;1.33;;;5.00;99.90;;;;;;5066542;28;20029;-42
2021/11/22 02:50:15;;;;;;;4.63;1.30;;;5.00;99.90;;;;;;5067357;28;20024;-43
2021/11/22 02:52:42;;;;;;;2.67;1.45;;;5.00;99.90;;;;;;5067106;28;20132;-43
2021/11/22 02:55:10;;;;;;;6.03;1.52;;;5.00;99.90;;;;;;5066942;28;20052;-42
2021/11/22 02:57:36;;;;;;;4.63;1.38;;;4.90;99.90;;;;;;5067665;28;20039;-43
2021/11/22 03:00:05;;;;;;;2.00;1.17;;;4.90;99.90;;;;;;5067139;28;20028;-42
2021/11/22 03:02:30;;;;;;;5.80;1.40;;;4.90;99.90;;;;;;5066185;28;20024;-43
2021/11/22 03:04:56;;;;;;;3.38;1.13;;;4.90;99.90;;;;;;5067563;28;20020;-42
2021/11/22 03:07:21;;;;;;;4.45;1.27;;;4.90;99.90;;;;;;5067566;28;20020;-43
2021/11/22 03:09:47;;;;;;;4.30;1.42;;;4.90;99.90;;;;;;5067220;28;20115;-43
2021/11/22 03:12:15;;;;;;;3.65;1.42;;;4.90;99.90;;;;;;5066921;28;20056;-43
2021/11/22 03:14:41;;;;;;;2.85;1.10;;;4.90;99.90;;;;;;5066910;28;20402;-43
2021/11/22 03:17:07;;;;;;;2.20;1.05;;;4.90;99.90;;;;;;5066362;28;20177;-43
2021/11/22 03:19:33;;;;;;;5.05;1.55;;;4.80;99.90;;;;;;5067169;28;20132;-43
2021/11/22 03:21:59;;;;;;;3.13;1.42;;;4.80;99.90;;;;;;5066014;28;20028;-43
2021/11/22 03:24:26;;;;;;;4.82;1.45;;;4.80;99.90;;;;;;5067222;28;20024;-43
2021/11/22 03:26:51;;;;;;;4.65;1.85;;;4.80;99.90;;;;;;5066663;28;20376;-42
2021/11/22 03:29:20;;;;;;;4.05;1.25;;;4.80;99.90;;;;;;5066623;28;20020;-43
2021/11/22 03:31:45;;;;;;;3.63;1.20;;;4.80;99.90;;;;;;5067319;28;20495;-42
2021/11/22 03:34:12;;;;;;;11.23;2.25;;;4.80;99.90;;;;;;5066792;28;20021;-42
2021/11/22 03:36:39;;;;;;;4.38;1.55;;;4.80;99.90;;;;;;5066075;28;20040;-43
2021/11/22 03:39:11;;;;;;;6.70;1.50;;;4.80;99.90;;;;;;5066328;28;20058;-42
2021/11/22 03:41:37;;;;;;;3.15;1.50;;;4.80;99.90;;;;;;5070106;28;20031;-41
2021/11/22 03:44:11;;;;;;;5.00;1.55;;;4.80;99.90;;;;;;5070024;28;20015;-42
2021/11/22 03:46:37;;;;;;;6.05;1.38;;;4.80;99.90;;;;;;5070847;28;20032;-42
2021/11/22 03:49:03;;;;;;;6.35;1.30;;;4.80;99.90;;;;;;5070726;28;20488;-42
2021/11/22 03:51:29;;;;;;;3.67;1.20;;;4.80;99.90;;;;;;5069684;28;20031;-42
2021/11/22 03:53:55;;;;;;;4.05;1.30;;;4.80;99.90;;;;;;5070680;28;20017;-43
2021/11/22 03:56:21;;;;;;;4.25;1.35;;;4.70;99.90;;;;;;5071261;28;20079;-42
2021/11/22 03:58:49;;;;;;;4.00;1.40;;;4.70;99.90;;;;;;5069534;28;20021;-43
2021/11/22 04:01:18;;;;;;;4.30;1.40;;;4.70;99.90;;;;;;5071113;28;20107;-42
2021/11/22 04:03:44;;;;;;;2.78;1.65;;;4.70;99.90;;;;;;5070287;28;20021;-42
2021/11/22 04:06:10;;;;;;;3.63;1.42;;;4.70;99.90;;;;;;5069801;28;20031;-43
2021/11/22 04:08:36;;;;;;;4.28;1.02;;;4.70;99.90;;;;;;5070119;28;20025;-42
2021/11/22 04:11:02;;;;;;;4.30;1.50;;;4.70;99.90;;;;;;5070699;28;20035;-42
2021/11/22 04:13:27;;;;;;;4.25;1.92;;;4.70;99.90;;;;;;5069682;28;20069;-42
2021/11/22 04:15:53;;;;;;;3.22;1.33;;;4.70;99.90;;;;;;5068488;28;20495;-42
2021/11/22 04:18:18;;;;;;;3.25;1.40;;;4.70;99.90;;;;;;5070184;28;20110;-43
2021/11/22 04:20:44;;;;;;;2.80;1.15;;;4.70;99.90;;;;;;5069556;28;20079;-42
2021/11/22 04:23:10;;;;;;;7.57;1.20;;;4.70;99.90;;;;;;5070341;28;20031;-43
2021/11/22 04:25:37;;;;;;;4.45;1.42;;;4.60;99.90;;;;;;5069213;28;20025;-42
2021/11/22 04:28:03;;;;;;;5.20;1.50;;;4.60;99.90;;;;;;5069970;28;20017;-43
2021/11/22 04:30:31;;;;;;;4.68;1.40;;;4.60;99.90;;;;;;5070258;28;20032;-43
2021/11/22 04:32:57;;;;;;;9.77;1.50;;;4.60;99.90;;;;;;5068894;28;20407;-43
2021/11/22 04:35:22;;;;;;;3.28;1.45;;;4.50;99.90;;;;;;5070106;28;20036;-43
2021/11/22 04:37:48;;;;;;;3.42;1.35;;;4.60;99.90;;;;;;5070226;28;20028;-43
2021/11/22 04:40:16;;;;;;;4.00;1.38;;;4.50;99.90;;;;;;5068958;28;20502;-43
2021/11/22 04:42:45;;;;;;;2.60;1.27;;;4.50;99.90;;;;;;5069595;28;20051;-43
2021/11/22 04:45:11;;;;;;;3.35;1.45;;;4.50;99.90;;;;;;5069741;28;20096;-43
2021/11/22 04:47:37;;;;;;;3.15;1.27;;;4.50;99.90;;;;;;5068902;28;20028;-43
2021/11/22 04:50:04;;;;;;;6.05;1.50;;;4.50;99.90;;;;;;5069506;28;20022;-43
2021/11/22 04:52:32;;;;;;;3.85;1.55;;;4.50;99.90;;;;;;5068693;28;20103;-42
2021/11/22 04:54:57;;;;;;;3.42;1.25;;;4.40;99.90;;;;;;5068869;28;20028;-42
2021/11/22 04:57:23;;;;;;;3.47;1.30;;;4.40;99.90;;;;;;5069486;28;20040;-41
2021/11/22 04:59:49;;;;;;;2.42;1.17;;;4.40;99.90;;;;;;5070102;28;20028;-43
2021/11/22 05:02:14;;;;;;;5.18;1.20;;;4.40;99.90;;;;;;5068685;28;20033;-41
2021/11/22 05:04:42;;;;;;;7.00;1.20;;;4.40;99.90;;;;;;5069652;28;20020;-43
2021/11/22 05:07:08;;;;;;;3.45;1.27;;;4.40;99.90;;;;;;5069006;28;20037;-44
2021/11/22 05:09:36;;;;;;;2.17;0.93;;;4.40;99.90;;;;;;5068423;28;20016;-43
2021/11/22 05:12:02;;;;;;;4.57;1.20;;;4.40;99.90;;;;;;5069456;28;20035;-43
2021/11/22 05:14:28;;;;;;;3.85;1.10;;;4.40;99.90;;;;;;5068740;28;20024;-43
2021/11/22 05:16:53;;;;;;;1.73;1.17;;;4.40;99.90;;;;;;5067913;28;20143;-42
2021/11/22 05:19:29;;;;;;;1.30;1.15;;;4.40;99.90;;;;;;5069674;28;20154;-42
2021/11/22 05:21:59;;;;;;;3.53;1.35;;;4.40;99.90;;;;;;5068445;28;20468;-42
2021/11/22 05:24:25;;;;;;;4.68;1.83;;;4.40;99.90;;;;;;5068758;28;20388;-42
2021/11/22 05:26:51;;;;;;;3.15;1.25;;;4.40;99.90;;;;;;5068820;28;20036;-42
2021/11/22 05:29:16;;;;;;;2.70;1.10;;;4.30;99.90;;;;;;5068183;28;20476;-42
2021/11/22 05:31:42;;;;;;;4.68;1.27;;;4.40;99.90;;;;;;5068358;28;20032;-43
2021/11/22 05:34:10;;;;;;;2.20;1.00;;;4.30;99.90;;;;;;5068816;28;20021;-43
2021/11/22 05:36:36;;;;;;;2.45;1.35;;;4.30;99.90;;;;;;5068179;28;20036;-43
2021/11/22 05:39:06;;;;;;;2.38;1.10;;;4.30;99.90;;;;;;5068687;28;20017;-43
2021/11/22 05:41:32;;;;;;;3.53;1.40;;;4.30;99.90;;;;;;5068019;28;20499;-43
2021/11/22 05:43:58;;;;;;;3.20;1.52;;;4.30;99.90;;;;;;5068285;28;20016;-43
2021/11/22 05:46:23;;;;;;;3.53;1.80;;;4.30;99.90;;;;;;5068635;28;20047;-41
2021/11/22 05:48:49;;;;;;;2.78;1.77;;;4.30;99.90;;;;;;5068138;28;20035;-42
2021/11/22 05:51:15;;;;;;;6.03;1.65;;;4.30;99.90;;;;;;5068514;28;20105;-43
2021/11/22 05:53:42;;;;;;;1.33;1.23;;;4.20;99.90;;;;;;5068060;28;20472;-43
2021/11/22 05:56:11;;;;;;;1.85;1.30;;;4.20;99.90;;;;;;5068375;28;20400;-43
2021/11/22 05:58:39;;;;;;;4.50;1.27;;;4.20;99.90;;;;;;5067734;28;20038;-43
2021/11/22 06:01:06;;;;;;;3.95;1.60;;;4.20;99.90;;;;;;5068312;28;20162;-42
2021/11/22 06:03:32;;;;;;;2.88;1.30;;;4.20;99.90;;;;;;5067964;28;20024;-43
2021/11/22 06:05:58;;;;;;;3.83;1.10;;;4.20;99.90;;;;;;5067311;28;20522;-42
2021/11/22 06:08:24;;;;;;;3.50;1.60;;;4.20;99.90;;;;;;5067769;28;20032;-42
2021/11/22 06:10:50;;;;;;;4.60;1.40;;;4.20;99.90;;;;;;5067751;28;20032;-42
2021/11/22 06:13:19;;;;;;;1.38;1.08;;;4.10;99.90;;;;;;5068317;28;20047;-42
2021/11/22 06:15:46;;;;;;;4.70;1.38;;;4.10;99.90;;;;;;5067478;28;20461;-42
2021/11/22 06:18:13;;;;;;;2.60;1.10;;;4.10;99.90;;;;;;5066576;28;20036;-43
2021/11/22 06:20:39;;;;;;;2.50;1.20;;;4.10;99.90;;;;;;5068212;28;20024;-42
2021/11/22 06:23:05;;;;;;;2.63;1.10;;;4.10;99.90;;;;;;5067648;28;20028;-43
2021/11/22 06:25:31;;;;;;;5.25;1.27;;;4.00;99.90;;;;;;5066412;28;20028;-43
2021/11/22 06:27:57;;;;;;;2.38;1.20;;;4.00;99.90;;;;;;5067583;28;20111;-44
2021/11/22 06:30:23;;;;;;;3.92;1.60;;;4.00;99.90;;;;;;5062482;28;20043;-43
2021/11/22 06:32:51;;;;;;;2.97;1.35;;;4.00;99.90;;;;;;5063915;28;20083;-42
2021/11/22 06:35:19;;;;;;;4.22;1.33;;;4.00;99.90;;;;;;5066593;28;20476;-42
2021/11/22 06:37:45;;;;;;;3.20;1.30;;;4.00;99.90;;;;;;5066175;28;20125;-42
2021/11/22 06:40:11;;;;;;;3.03;1.17;;;3.90;99.90;;;;;;5065942;28;20429;-43
2021/11/22 06:42:37;;;;;;;2.13;1.00;;;3.90;99.90;;;;;;5066494;28;20047;-43
2021/11/22 06:45:10;;;;;;;2.97;1.10;;;3.90;99.90;;;;;;5061043;28;20468;-42
2021/11/22 06:47:36;;;;;;;1.85;1.00;;;3.90;99.90;;;;;;5065416;28;20031;-42
2021/11/22 06:50:03;;;;;;;3.33;1.38;;;3.90;99.90;;;;;;5066665;28;20016;-42
2021/11/22 06:52:29;;;;;;;3.63;1.80;;;3.90;99.90;;;;;;5066643;28;20031;-42
2021/11/22 06:54:56;;;;;;;3.97;1.30;;;3.80;99.90;;;;;;5059971;28;20021;-42
2021/11/22 06:57:29;;;;;;;3.30;1.20;;;3.80;99.90;;;;;;5054681;28;20036;-44
2021/11/22 06:59:55;;;;;;;3.17;1.75;;;3.80;99.90;;;;;;5054941;28;20021;-42
2021/11/22 07:02:24;;;;;;;4.60;1.60;;;3.80;99.90;;;;;;5067885;28;20036;-43
2021/11/22 07:04:49;;;;;;;4.75;1.50;;;3.80;99.90;;;;;;5067152;28;20025;-42
2021/11/22 07:07:15;;;;;;;6.45;2.05;;;3.80;99.90;;;;;;5066375;28;20021;-43
2021/11/22 07:09:45;;;;;;;7.18;1.98;;;3.80;99.90;;;;;;5066915;28;20552;-42
2021/11/22 07:12:11;;;;;;;6.18;1.80;;;3.80;99.90;;;;;;5067318;28;20169;-42
2021/11/22 07:14:38;;;;;;;5.05;2.00;;;3.80;99.90;;;;;;5065860;28;20442;-42
2021/11/22 07:17:05;;;;;;;10.85;2.42;;;3.80;99.90;;;;;;5067252;28;20071;-42
2021/11/22 07:19:31;;;;;;;8.32;2.55;;;3.70;99.90;;;;;;5066592;28;20492;-43
2021/11/22 07:22:00;;;;;;;9.18;2.60;;;3.70;99.90;;;;;;5066320;28;20028;-42
2021/11/22 07:24:25;;;;;;;7.20;1.70;;;3.70;99.90;;;;;;5066597;28;20024;-44
2021/11/22 07:26:54;;;;;;;4.50;1.70;;;3.70;99.90;;;;;;5066998;28;20025;-43
2021/11/22 07:29:20;;;;;;;5.00;1.60;;;3.70;99.90;;;;;;5066561;28;20528;-43
2021/11/22 07:31:46;;;;;;;3.50;1.73;;;3.70;99.90;;;;;;5066316;28;20040;-44
2021/11/22 07:34:11;;;;;;;8.52;2.13;;;3.70;99.90;;;;;;5065395;28;20038;-43
2021/11/22 07:36:37;;;;;;;4.80;1.70;;;3.70;99.90;;;;;;5066219;28;20028;-43
2021/11/22 07:39:03;;;;;;;10.20;2.42;;;3.70;99.90;;;;;;5066700;28;20052;-42
2021/11/22 07:41:29;;;;;;;7.30;2.13;;;3.70;99.90;;;;;;5066871;28;20032;-42
2021/11/22 07:43:55;;;;;;;6.78;1.85;;;3.70;99.90;;;;;;5065520;28;20020;-44
2021/11/22 07:46:21;;;;;;;5.82;1.88;;;3.70;99.90;;;;;;5067797;28;20017;-43
2021/11/22 07:48:47;;;;;;;4.82;1.77;;;3.70;99.90;;;;;;5066540;28;20033;-44
2021/11/22 07:51:12;;;;;;;8.48;1.67;;;3.70;99.90;;;;;;5065843;28;20031;-43
2021/11/22 07:53:39;;;;;;;3.60;2.05;;;3.70;99.90;;;;;;5066565;28;20124;-44
2021/11/22 07:56:05;;;;;;;6.20;1.65;;;3.70;99.90;;;;;;5065949;28;20036;-43
2021/11/22 07:58:31;;;;;;;3.55;1.70;;;3.80;99.90;;;;;;5065529;28;20512;-43
2021/11/22 08:00:58;;;;;;;3.20;1.75;;;3.70;99.90;;;;;;5066650;28;20021;-43
2021/11/22 08:03:23;;;;;;;2.92;1.70;;;3.80;99.90;;;;;;5066037;28;20024;-44
2021/11/22 08:05:52;;;;;;;3.25;1.77;;;3.80;99.90;;;;;;5066576;28;20028;-42
2021/11/22 08:08:18;;;;;;;7.00;2.05;;;3.80;99.90;;;;;;5065988;28;20472;-43
2021/11/22 08:10:47;;;;;;;4.78;1.85;;;3.80;99.90;;;;;;5065582;28;20107;-43
2021/11/22 08:13:13;;;;;;;3.55;2.08;;;3.80;99.90;;;;;;5066751;28;20036;-43
2021/11/22 08:15:39;;;;;;;3.53;1.70;;;3.90;99.90;;;;;;5066353;28;20028;-44
2021/11/22 08:18:07;;;;;;;4.63;2.10;;;3.90;99.90;;;;;;5065531;28;20125;-43
2021/11/22 08:20:33;;;;;;;5.65;2.30;;;3.90;99.90;;;;;;5065985;28;20079;-44
2021/11/22 08:22:59;;;;;;;4.63;2.33;;;3.90;99.90;;;;;;5066218;28;20033;-43
2021/11/22 08:25:27;;;;;;;4.65;2.10;;;3.90;99.90;;;;;;5065732;28;20529;-44
2021/11/22 08:27:54;;;;;;;6.13;2.30;;;3.90;99.90;;;;;;5067801;28;20021;-43
2021/11/22 08:30:23;;;;;;;4.22;1.85;;;4.00;99.90;;;;;;5070272;28;20050;-42
2021/11/22 08:32:50;;;;;;;7.95;2.30;;;3.90;99.90;;;;;;5068470;28;20533;-43
2021/11/22 08:35:25;;;;;;;2.70;1.65;;;4.00;99.90;;;;;;5070719;28;20051;-44
2021/11/22 08:37:51;;;;;;;1.90;1.33;;;4.00;99.90;;;;;;5069632;28;20033;-43
2021/11/22 08:40:21;;;;;;;3.58;1.60;;;4.10;99.90;;;;;;5059049;28;20025;-43
2021/11/22 08:42:48;;;;;;;3.55;1.75;;;4.10;99.90;;;;;;5055656;28;20039;-43
2021/11/22 08:45:14;;;;;;;5.47;1.83;;;4.10;99.90;;;;;;5064487;28;20078;-43
2021/11/22 08:47:40;;;;;;;2.58;1.42;;;4.10;99.90;;;;;;5068924;28;20032;-43
2021/11/22 08:50:08;;;;;;;9.95;1.83;;;4.20;99.90;;;;;;5066216;28;20537;-43
2021/11/22 08:52:34;;;;;;;2.90;1.63;;;4.20;99.90;;;;;;5055200;28;20078;-43
2021/11/22 08:55:00;;;;;;;2.97;1.33;;;4.20;99.90;;;;;;5063751;28;20029;-43
2021/11/22 08:57:26;;;;;;;2.28;1.48;;;4.30;99.90;;;;;;5069868;28;20047;-43
2021/11/22 08:59:53;;;;;;;4.40;1.73;;;4.30;99.90;;;;;;5067790;28;20017;-43
2021/11/22 09:02:21;;;;;;;5.07;1.20;;;4.40;99.90;;;;;;5063142;28;20051;-44
2021/11/22 09:04:50;;;;;;;4.75;1.42;;;4.40;99.90;;;;;;5060195;28;20029;-43
2021/11/22 09:07:16;;;;;;;2.33;1.20;;;4.50;99.90;;;;;;5068399;28;20044;-44
2021/11/22 09:09:41;;;;;;;2.50;1.40;;;4.50;99.90;;;;;;5068214;28;20145;-44
2021/11/22 09:12:07;;;;;;;4.35;1.30;;;4.60;99.90;;;;;;5063115;28;20046;-43
2021/11/22 09:14:33;;;;;;;4.40;1.50;;;4.60;99.90;;;;;;5058824;28;20480;-43
2021/11/22 09:16:58;;;;;;;3.13;1.85;;;4.70;99.90;;;;;;5068786;28;20133;-43
2021/11/22 09:19:24;;;;;;;2.63;1.90;;;4.70;99.90;;;;;;5068105;28;20605;-42
2021/11/22 09:21:50;;;;;;;3.00;1.60;;;4.80;99.90;;;;;;5066354;28;20025;-42
2021/11/22 09:24:16;;;;;;;6.30;2.35;;;4.90;99.90;;;;;;5055672;28;20024;-44
2021/11/22 09:26:42;;;;;;;3.90;1.60;;;4.90;99.90;;;;;;5069086;28;20067;-43
2021/11/22 09:29:07;;;;;;;3.05;1.80;;;5.00;99.90;;;;;;5068064;28;20052;-44
2021/11/22 09:31:34;;;;;;;3.33;1.60;;;5.00;99.90;;;;;;5067615;28;20017;-43
2021/11/22 09:33:59;;;;;;;3.60;1.70;;;5.10;99.90;;;;;;5053784;28;20427;-42
2021/11/22 09:36:26;;;;;;;4.32;1.70;;;5.10;99.90;;;;;;5067665;28;20045;-43
2021/11/22 09:38:52;;;;;;;6.38;2.13;;;5.20;99.90;;;;;;5068395;28;20371;-42
2021/11/22 09:41:18;;;;;;;9.30;1.73;;;5.20;99.90;;;;;;5067991;28;20028;-42
2021/11/22 09:43:46;;;;;;;11.05;1.90;;;5.20;99.90;;;;;;5032634;28;20029;-43
2021/11/22 09:46:12;;;;;;;4.95;1.90;;;5.30;99.90;;;;;;5062544;28;20020;-43
2021/11/22 09:48:39;;;;;;;1.88;1.40;;;5.40;99.90;;;;;;5067780;28;20438;-43
2021/11/22 09:51:07;;;;;;;5.15;1.50;;;5.40;99.90;;;;;;5066912;28;20086;-43
2021/11/22 09:53:32;;;;;;;6.60;1.58;;;5.50;99.90;;;;;;5052631;28;20107;-43
2021/11/22 09:55:58;;;;;;;6.50;1.70;;;5.60;99.90;;;;;;5066711;28;20108;-43
2021/11/22 09:58:24;;;;;;;5.13;1.70;;;5.60;99.90;;;;;;5068448;28;20039;-44
2021/11/22 10:00:54;;;;;;;3.28;1.80;;;5.60;99.90;;;;;;5067408;28;20020;-42
2021/11/22 10:03:24;;;;;;;6.07;2.00;;;5.70;99.90;;;;;;5052662;28;20456;-43
2021/11/22 10:05:59;;;;;;;3.20;1.70;;;5.70;99.90;;;;;;5068115;28;20016;-43
2021/11/22 10:08:25;;;;;;;3.90;1.23;;;5.80;99.90;;;;;;5067891;28;20025;-43
2021/11/22 10:10:59;;;;;;;3.20;1.38;;;5.80;99.90;;;;;;5066958;28;20017;-42
2021/11/22 10:13:28;;;;;;;2.95;1.00;;;5.80;99.90;;;;;;5041448;28;20021;-42
2021/11/22 10:16:00;;;;;;;3.22;1.00;;;5.90;99.90;;;;;;5067129;28;20127;-42
2021/11/22 10:18:29;;;;;;;1.38;0.80;;;5.90;99.90;;;;;;5067057;28;20086;-44
2021/11/22 10:21:01;;;;;;;2.15;1.25;;;5.90;99.90;;;;;;5066949;28;20575;-43
2021/11/22 10:23:28;;;;;;;1.27;0.98;;;6.00;99.90;;;;;;5051839;28;20029;-42
2021/11/22 10:25:55;;;;;;;3.85;1.17;;;6.00;99.90;;;;;;5066877;28;20032;-42
2021/11/22 10:28:24;;;;;;;3.22;1.00;;;6.10;99.90;;;;;;5066919;28;20418;-43
2021/11/22 10:30:55;;;;;;;1.33;0.90;;;6.10;99.90;;;;;;5068137;28;20103;-43
2021/11/22 10:33:31;;;;;;;2.03;0.82;;;6.10;99.90;;;;;;5051338;28;20107;-44
2021/11/22 10:36:00;;;;;;;2.55;1.15;;;6.20;99.90;;;;;;5067157;28;20028;-42
2021/11/22 10:38:31;;;;;;;1.85;1.02;;;6.20;99.90;;;;;;5066101;28;20029;-44
2021/11/22 10:41:00;;;;;;;5.40;0.93;;;6.30;99.90;;;;;;5067789;28;20028;-43
2021/11/22 10:43:39;;;;;;;2.22;0.80;;;6.30;99.90;;;;;;5051157;28;20024;-43
2021/11/22 10:46:09;;;;;;;2.70;0.80;;;6.30;99.90;;;;;;5066302;28;20345;-44
2021/11/22 10:48:35;;;;;;;1.25;0.80;;;6.40;99.90;;;;;;5067052;28;20070;-42
2021/11/22 10:51:21;;;;;;;2.55;1.00;;;6.40;99.90;;;;;;5066872;28;20237;-42
2021/11/22 10:53:51;;;;;;;1.48;0.68;;;6.50;99.90;;;;;;5050706;28;20158;-43
2021/11/22 10:56:23;;;;;;;4.20;1.23;;;6.50;99.90;;;;;;5067413;28;20040;-43
2021/11/22 10:58:57;;;;;;;3.73;1.10;;;6.50;99.90;;;;;;5066447;28;20086;-44
2021/11/22 11:01:30;;;;;;;2.42;1.27;;;6.60;99.90;;;;;;5046753;28;20286;-44
2021/11/22 11:04:04;;;;;;;3.10;1.10;;;6.60;99.90;;;;;;5046540;28;20141;-42
2021/11/22 11:06:40;;;;;;;4.93;1.25;;;6.60;99.90;;;;;;5046520;28;20082;-43
2021/11/22 11:09:10;;;;;;;1.90;1.00;;;6.70;99.90;;;;;;5062143;28;20372;-43
2021/11/22 11:11:36;;;;;;;4.45;1.00;;;6.70;99.90;;;;;;5066740;28;20027;-43
2021/11/22 11:14:10;;;;;;;2.80;0.93;;;6.70;99.90;;;;;;5050371;28;20012;-42
2021/11/22 11:16:37;;;;;;;0.75;0.73;;;6.80;99.90;;;;;;5066618;28;20513;-42
2021/11/22 11:19:16;;;;;;;3.45;0.80;;;6.80;99.90;;;;;;5066861;28;20543;-43
2021/11/22 11:21:47;;;;;;;2.53;0.90;;;6.80;99.90;;;;;;5066114;28;20021;-44
2021/11/22 11:24:14;;;;;;;3.25;1.15;;;6.80;99.90;;;;;;5049378;28;20074;-44
2021/11/22 11:26:47;;;;;;;2.88;0.60;;;6.90;99.90;;;;;;5066470;28;20021;-44
2021/11/22 11:29:18;;;;;;;3.33;0.90;;;6.90;99.90;;;;;;5065942;28;20379;-43
2021/11/22 11:31:44;;;;;;;1.85;0.60;;;7.00;99.90;;;;;;5066291;28;20028;-43
2021/11/22 11:34:12;;;;;;;1.58;0.80;;;7.00;99.90;;;;;;5050934;28;20023;-42
2021/11/22 11:36:54;;;;;;;2.40;0.80;;;7.00;99.90;;;;;;5065371;28;20032;-43
2021/11/22 11:40:05;;;;;;;1.52;0.60;;;7.00;99.90;;;;;;5066710;28;20021;-43
2021/11/22 11:43:08;;;;;;;2.60;0.80;;;7.10;99.90;;;;;;5055076;28;20032;-43
2021/11/22 11:45:37;;;;;;;2.55;0.80;;;7.10;99.90;;;;;;5066265;28;20032;-43
2021/11/22 11:48:29;;;;;;;1.58;0.70;;;7.10;99.90;;;;;;5066430;28;20043;-43
2021/11/22 11:51:11;;;;;;;4.65;1.55;;;7.10;99.90;;;;;;5066625;28;20021;-43
2021/11/22 11:53:39;;;;;;;1.40;0.60;;;7.10;99.90;;;;;;5051435;28;20028;-43
2021/11/22 11:56:13;;;;;;;3.85;1.00;;;7.20;99.90;;;;;;5065364;28;20129;-44
2021/11/22 11:58:40;;;;;;;0.80;0.63;;;7.20;99.90;;;;;;5066523;28;20036;-44
2021/11/22 12:01:20;;;;;;;1.98;0.70;;;7.20;99.90;;;;;;5066945;28;20392;-43
2021/11/22 12:04:02;;;;;;;1.08;0.52;;;7.30;99.90;;;;;;5054217;28;20384;-44
2021/11/22 12:06:54;;;;;;;1.48;0.73;;;7.30;99.90;;;;;;5069768;28;20021;-44
2021/11/22 12:09:31;;;;;;;4.93;0.98;;;7.30;99.90;;;;;;5069376;28;20021;-43
2021/11/22 12:12:07;;;;;;;1.80;0.82;;;7.30;99.90;;;;;;5060580;28;20091;-43
2021/11/22 12:14:56;;;;;;;7.43;1.10;;;7.30;99.90;;;;;;5060931;28;20495;-43
2021/11/22 12:17:33;;;;;;;1.67;0.90;;;7.40;99.90;;;;;;5066071;28;20040;-43
2021/11/22 12:20:06;;;;;;;2.35;1.10;;;7.40;99.90;;;;;;5070274;28;20047;-43
2021/11/22 12:22:37;;;;;;;1.40;0.80;;;7.40;99.90;;;;;;5058974;28;20035;-47
2021/11/22 12:25:05;;;;;;;1.77;0.80;;;7.50;99.90;;;;;;5063914;28;20060;-43
2021/11/22 12:27:38;;;;;;;1.15;0.60;;;7.50;99.90;;;;;;5069929;28;20031;-43
2021/11/22 12:30:27;;;;;;;1.42;0.60;;;7.50;99.90;;;;;;5069643;28;20067;-44
2021/11/22 12:32:53;;;;;;;4.07;0.90;;;7.60;99.90;;;;;;5048305;28;20031;-44
2021/11/22 12:35:34;;;;;;;1.10;0.65;;;7.60;99.90;;;;;;5064810;28;20031;-43
2021/11/22 12:38:21;;;;;;;1.88;0.90;;;7.50;99.90;;;;;;5066785;28;20025;-44
2021/11/22 12:40:52;;;;;;;1.77;0.70;;;7.60;99.90;;;;;;5069533;28;20330;-44
2021/11/22 12:43:38;;;;;;;5.13;0.73;;;7.60;99.90;;;;;;5054270;28;20871;-44
2021/11/22 12:46:04;;;;;;;2.75;0.85;;;7.60;99.90;;;;;;5068758;28;20090;-42
2021/11/22 12:48:35;;;;;;;1.58;0.60;;;7.70;99.90;;;;;;5069003;28;20025;-43
2021/11/22 12:51:05;;;;;;;3.80;0.70;;;7.70;99.90;;;;;;5069411;28;20089;-43
2021/11/22 12:53:31;;;;;;;2.03;0.65;;;7.70;99.90;;;;;;5053415;28;20527;-43
2021/11/22 12:55:57;;;;;;;1.88;0.55;;;7.70;99.90;;;;;;5068744;28;20522;-43
2021/11/22 12:58:26;;;;;;;1.73;0.60;;;7.70;99.90;;;;;;5069273;28;20068;-43
2021/11/22 13:00:54;;;;;;;0.63;0.50;;;7.80;99.90;;;;;;5068732;28;20086;-43
2021/11/22 13:03:21;;;;;;;1.95;0.70;;;7.80;99.90;;;;;;5053606;28;20040;-44